KFLLKHXD

Guest
Details From KFLL - Fort Lauderdale Hollywood Intl
To KHXD - Hilton Head
Flight Number -
Tags Generated
Created
Modified
Stats Distance 371 nm / 686 km
Max Altitude 0 ft / 0 m
Waypoints 3
Social Downloads 0
Likes 0
Share VATSIM

Download

Looking for another format? Having issues loading an existing format? Contact us
Advertisement - Login to hide

Notes

Generated

Route

KFLL OPUSE KHXD

ID Type Via Altitude Latitude Longitude Leg Dist Tot Dist Heading (true) Name
O KFLL APT - 0 ft / 0 m 26.06598˚ -80.16032˚ - 0 nm - -
OPUSE FIX - 0 ft / 0 m 32.02733˚ -80.70147˚ 359 nm 359 nm 356° / 355° -
O KHXD APT - 0 ft / 0 m 32.21905˚ -80.70053˚ 11 nm 370 nm 0° / 0° Hilton Head

Altitude Profile

Advertisement - Login to hide

Weather


0- 5 10 15 20 25 30 35+ Temperature / ° C

Clouds and Precipitation
Forecast for 2018-05-26 12:00 UTC. Updated 5 hours ago

Ground ~20,000 ft ~40,000 ft Winds

KFLL

Details ICAO KFLL (FLL)
Name Fort Lauderdale Hollywood Intl
Region United States
Timezone America/New_York (UTC-4.0)
Stats Elevation 9 ft / 3 m (AMSL)
Location 26.071638° -80.152694°
Runways 2
Magnetic Variation 6.810° W

METAR

KFLL 261553Z 11014KT 10SM -RA SCT018 SCT070 BKN110 26/25 A2993 RMK AO2 SLP135 P0001 T02610250

Decode

TAF

TAF KFLL 261137Z 2612/2718 11010KT P6SM VCSH SCT025 SCT035 BKN045 FM261500 12015KT P6SM SHRA VCTS FEW007 SCT020 BKN030CB FM270500 14015KT P6SM SHRA VCTS SCT015 BKN030CB FM271400 17020KT P6SM SHRA VCTS SCT010 BKN030CB

Decode

Departure Runways

ID Width Length Bearing (true) Bearing (mag) Surface Threshold Offset Overrun Length
09L 150 ft / 46 m 8,987 ft / 2,739 m 90.35° 97.16° Asphalt 577 ft / 176 m 10 ft / 3 m
09R 100 ft / 30 m 5,268 ft / 1,606 m 90.38° 97.19° Asphalt 320 ft / 98 m 0 ft / 0 m
27L 100 ft / 30 m 5,268 ft / 1,606 m 270.39° 277.20° Asphalt 142 ft / 43 m 0 ft / 0 m
27R 150 ft / 46 m 8,987 ft / 2,739 m 270.37° 277.18° Asphalt 604 ft / 184 m 10 ft / 3 m

KHXD

Details ICAO KHXD (HXD)
Name Hilton Head
Region United States
Timezone America/New_York (UTC-4.0)
Stats Elevation 19 ft / 6 m (AMSL)
Location 32.224361° -80.697475°
Runways 1
Magnetic Variation 7.398° W

METAR

KHXD 261550Z 16011KT 10SM SCT014 27/23 A3002 RMK TCU DSNT S

Decode

TAF

Not found

Destination Runways

ID Width Length Bearing (true) Bearing (mag) Surface Threshold Offset Overrun Length
03 98 ft / 30 m 4,309 ft / 1,313 m 25.97° 33.37° Asphalt 299 ft / 91 m 59 ft / 18 m
21 98 ft / 30 m 4,309 ft / 1,313 m 205.97° 213.37° Asphalt 272 ft / 83 m 75 ft / 23 m

Approach Navaids

Runway Type Ident Frequency Range Bearing (true) Bearing (mag) Slope Elevation
21 Localiser IHXD 111.30 MHz 18 nm / 33 km 205.97° 213.37° - 19 ft / 6 m (AMSL)
21 DME IHXD 111.30 MHz 18 nm / 33 km - - - 19 ft / 6 m (AMSL)